หน้าหลัก
METAR-TAF:

METAR-TAF

ท่าอากาศยาน :

ท่าอากาศยานลอนดอนซิตี

ลอนดอน, อังกฤษ

ละติจูด: 51-30N, ลองจิจูด: 000-03E, ความสูง: 5 ม.

การสังเกตสภาพอากาศปัจจุบัน

รายงานได้ทำขึ้นเมื่อ 41 นาทีที่แล้ว ณ เวลา 02:50 UTC
ลม 5 นอตจากใต้/ตะวันตกเฉียงใต้
อุณหภูมิ 10°C
ความชื้น 76%
ความกดอากาศ 1017 hPa
ทัศนวิสัย 10 กม. หรือมากกว่า

METAR: EGLC 130250Z AUTO 20005KT 9999 NCD 10/06 Q1017

เวลา: 04:31 (03:31 UTC)

การพยากรณ์

รายงานได้ทำขึ้นเมื่อ 1 ชั่วโมงและ 37 นาทีที่แล้ว ณ เวลา 01:54 UTC
การพยากรณ์มีผลตั้งแต่วันที่ 13 ณ เวลา 03 UTC จนถึงวันที่ 13 ณ เวลา 12 UTC
ลม 6 นอตจากใต้/ตะวันตกเฉียงใต้
ทัศนวิสัย 10 กม. หรือมากกว่า
มีเมฆน้อยที่ความสูง 4500 ฟุต

TAF: EGLC 130154Z 1303/1312 21006KT 9999 FEW045

สังเกตการณ์สภาพอากาศและพยากรณ์อากาศของสนามบินมากกว่า 4000 แห่ง (รายงาน METAR และ TAF).

สถานีที่ดูได้จะแสดงไว้ด้วยจุดสีเหลืองและสีแดงบนแผนที่.

เลื่อนเมาส์ไปเหนือจุดเพื่อดูชื่อสถานี.

แล้วคลิกเพื่อดูสังเกตการณ์และการพยากรณ์สภาพอากาศ.

ในการเปลี่ยนแผนที่: คลิกที่ปุ่มสีเขียวที่มีกากบาทสีดำเพื่อซูมเข้า; ที่ปุ่มสีเขียวที่มีขีดเพื่อซูมออก; หรือที่ลูกศรสีเขียวเพื่อไปยังแผนที่ที่อยู่ติดกัน.


METAR-TAF: